Time;durP1;ratioP1;P1;durP2;ratioP2;P2;SDS_P1;SDS_P2;PMS_P1;PMS_P2;Temp;Humidity;BMP_temperature;BMP_pressure;BME280_temperature;BME280_humidity;BME280_pressure;Samples;Min_cycle;Max_cycle;Signal;HPM_P1;HPM_P2
2022/05/29 00:01:05;;;;;;;10.05;3.78;;;;;;;24.36;46.68;98239.88;5012604;28;20029;-72
2022/05/29 00:03:30;;;;;;;15.60;4.40;;;;;;;24.35;46.33;98247.09;4995124;28;20029;-72
2022/05/29 00:05:56;;;;;;;12.90;4.30;;;;;;;24.26;46.02;98272.38;5011410;28;20030;-72
2022/05/29 00:08:29;;;;;;;10.63;3.95;;;;;;;24.21;46.26;98258.91;4994875;28;20038;-72
2022/05/29 00:10:55;;;;;;;11.10;3.92;;;;;;;24.16;46.15;98264.03;4994970;28;20571;-72
2022/05/29 00:13:21;;;;;;;12.10;3.70;;;;;;;24.06;46.31;98264.53;4979281;28;20041;-72
2022/05/29 00:15:46;;;;;;;12.70;4.13;;;;;;;23.98;46.90;98268.25;4995204;28;20022;-72
2022/05/29 00:18:13;;;;;;;16.45;4.18;;;;;;;23.98;46.98;98262.94;4995206;28;20041;-72
2022/05/29 00:20:38;;;;;;;15.95;4.07;;;;;;;24.01;46.97;98270.50;5012593;28;20033;-72
2022/05/29 00:23:04;;;;;;;15.55;4.22;;;;;;;24.10;46.85;98255.06;4995236;28;20037;-72
2022/05/29 00:25:29;;;;;;;11.40;4.00;;;;;;;24.17;46.55;98247.81;4995030;28;20037;-72
2022/05/29 00:27:55;;;;;;;9.95;4.00;;;;;;;24.23;46.51;98250.66;5011250;28;20386;-72
2022/05/29 00:30:20;;;;;;;15.90;4.10;;;;;;;24.22;46.50;98241.84;5011275;28;20052;-72
2022/05/29 00:32:46;;;;;;;9.95;3.70;;;;;;;24.27;46.43;98252.66;5011151;28;20121;-72
2022/05/29 00:35:11;;;;;;;11.80;3.90;;;;;;;24.28;46.51;98248.97;5012298;28;20482;-72
2022/05/29 00:37:39;;;;;;;9.57;3.55;;;;;;;24.33;46.41;98257.13;4994592;28;20034;-72
2022/05/29 00:40:18;;;;;;;13.18;3.85;;;;;;;24.32;46.54;98247.53;4994764;28;20578;-72
2022/05/29 00:42:43;;;;;;;12.10;3.53;;;;;;;24.35;46.37;98247.09;5011524;28;20370;-72
2022/05/29 00:45:13;;;;;;;12.30;4.03;;;;;;;24.36;46.44;98248.69;5012280;28;20037;-72
2022/05/29 00:47:38;;;;;;;11.50;4.30;;;;;;;24.34;46.62;98260.63;4995139;28;20105;-72
2022/05/29 00:50:04;;;;;;;18.20;4.43;;;;;;;24.29;46.71;98253.28;5011967;28;20095;-72
2022/05/29 00:52:30;;;;;;;17.10;4.22;;;;;;;24.27;46.57;98241.19;5012406;28;20037;-72
2022/05/29 00:55:01;;;;;;;11.98;3.88;;;;;;;24.23;46.57;98240.81;4974934;28;20026;-72
2022/05/29 00:57:30;;;;;;;13.50;4.20;;;;;;;24.23;46.65;98232.81;4991345;28;20441;-72
2022/05/29 00:59:58;;;;;;;11.13;3.75;;;;;;;24.18;46.58;98217.47;4991362;28;20030;-72
2022/05/29 01:02:23;;;;;;;18.02;3.88;;;;;;;24.18;46.79;98222.00;4991270;28;20035;-72
2022/05/29 01:04:49;;;;;;;11.43;3.72;;;;;;;24.14;46.98;98213.59;4992573;28;20038;-72
2022/05/29 01:07:14;;;;;;;15.27;4.35;;;;;;;24.10;47.19;98215.09;4991481;28;20026;-72
2022/05/29 01:09:41;;;;;;;19.98;4.10;;;;;;;24.08;47.35;98205.66;4991466;28;20445;-72
2022/05/29 01:12:18;;;;;;;14.85;4.20;;;;;;;24.06;47.48;98203.22;4975208;28;20026;-72
2022/05/29 01:14:51;;;;;;;12.77;3.92;;;;;;;24.03;47.42;98190.31;4991433;28;20383;-72
2022/05/29 01:17:35;;;;;;;14.32;4.32;;;;;;;24.02;47.55;98186.00;4992443;28;20034;-71
2022/05/29 01:20:12;;;;;;;13.38;4.70;;;;;;;23.99;47.75;98183.81;4992463;28;20446;-72
2022/05/29 01:22:43;;;;;;;13.37;4.80;;;;;;;23.92;48.06;98167.84;4991145;28;20130;-72
2022/05/29 01:25:12;;;;;;;12.98;4.53;;;;;;;23.93;47.92;98176.66;4995709;28;20019;-72
2022/05/29 01:28:02;;;;;;;11.40;4.60;;;;;;;23.93;48.35;98188.13;4995686;28;20088;-72
2022/05/29 01:30:28;;;;;;;17.25;5.07;;;;;;;23.86;48.16;98175.88;4995645;28;20037;-72
2022/05/29 01:33:22;;;;;;;11.25;4.43;;;;;;;23.87;47.96;98178.34;4994952;28;20046;-72
2022/05/29 01:36:02;;;;;;;19.58;4.43;;;;;;;23.85;48.30;98175.09;4994021;28;20058;-72
2022/05/29 01:38:40;;;;;;;11.88;4.28;;;;;;;23.83;48.21;98164.63;4994577;28;20034;-75
2022/05/29 01:41:18;;;;;;;13.65;4.38;;;;;;;23.82;48.41;98157.63;4996203;28;20037;-73
2022/05/29 01:44:09;;;;;;;14.23;4.57;;;;;;;23.75;48.35;98159.56;4994812;28;20085;-73
2022/05/29 01:46:35;;;;;;;12.93;4.00;;;;;;;23.70;48.47;98158.56;4994777;28;20089;-74
2022/05/29 01:49:07;;;;;;;14.10;4.15;;;;;;;23.71;48.62;98162.84;5010580;28;20035;-74
2022/05/29 01:51:40;;;;;;;10.82;3.78;;;;;;;23.69;48.69;98159.56;4994501;28;20117;-73
2022/05/29 01:54:40;;;;;;;11.18;3.65;;;;;;;23.65;48.71;98176.00;4999510;28;20022;-73
2022/05/29 01:57:27;;;;;;;14.07;4.35;;;;;;;23.63;48.75;98180.72;4999775;28;20052;-74
2022/05/29 02:00:14;;;;;;;13.20;4.15;;;;;;;23.64;48.86;98186.84;5018183;28;20082;-73
2022/05/29 02:02:44;;;;;;;9.07;3.72;;;;;;;23.60;48.59;98205.13;5016563;28;20091;-74
2022/05/29 02:05:12;;;;;;;11.90;4.15;;;;;;;23.57;48.82;98204.75;5015862;28;20063;-73
2022/05/29 02:07:47;;;;;;;10.88;4.35;;;;;;;23.56;48.61;98201.28;5032259;28;20512;-73
2022/05/29 02:10:19;;;;;;;12.93;3.97;;;;;;;23.53;48.65;98204.38;5015642;28;20041;-74
2022/05/29 02:12:54;;;;;;;11.23;3.53;;;;;;;23.49;48.61;98216.47;5016272;28;20037;-73
2022/05/29 02:15:42;;;;;;;13.50;3.92;;;;;;;23.47;48.63;98223.88;5016927;28;20037;-73
2022/05/29 02:18:13;;;;;;;11.10;3.58;;;;;;;23.43;48.48;98218.13;5018181;28;20153;-73
2022/05/29 02:20:42;;;;;;;10.73;3.35;;;;;;;23.38;48.50;98219.81;5016098;28;20046;-73
2022/05/29 02:23:15;;;;;;;13.40;4.25;;;;;;;23.35;48.70;98228.22;5015816;28;20053;-74
2022/05/29 02:25:41;;;;;;;15.80;4.65;;;;;;;23.35;48.70;98242.34;5016054;28;20037;-74
2022/05/29 02:28:12;;;;;;;10.50;3.85;;;;;;;23.32;48.68;98255.28;5015381;28;20037;-73
2022/05/29 02:30:51;;;;;;;10.10;3.85;;;;;;;23.31;48.59;98265.13;4999301;28;20048;-73
2022/05/29 02:33:18;;;;;;;10.73;4.35;;;;;;;23.19;48.85;98278.25;5012677;28;20137;-73
2022/05/29 02:36:19;;;;;;;10.73;3.63;;;;;;;23.12;49.41;98296.09;5011790;28;20038;-74
2022/05/29 02:38:53;;;;;;;11.55;4.00;;;;;;;23.11;49.76;98305.09;5000345;28;20038;-74
2022/05/29 02:41:23;;;;;;;14.23;4.40;;;;;;;23.13;49.82;98308.38;5012849;28;20022;-74
2022/05/29 02:44:14;;;;;;;11.38;3.88;;;;;;;23.15;49.81;98310.81;4997191;28;20028;-73
2022/05/29 02:47:02;;;;;;;9.02;3.83;;;;;;;23.21;50.10;98316.13;4998315;28;20487;-73
2022/05/29 02:49:31;;;;;;;14.88;3.90;;;;;;;23.21;50.10;98321.44;5014131;28;20038;-73
2022/05/29 02:52:08;;;;;;;13.77;4.10;;;;;;;23.19;49.92;98318.19;5012848;28;20064;-73
2022/05/29 02:54:34;;;;;;;14.63;4.47;;;;;;;23.23;49.94;98326.56;4997993;28;20026;-73
2022/05/29 02:57:01;;;;;;;11.32;4.38;;;;;;;23.25;50.01;98330.66;4996062;28;20492;-73
2022/05/29 02:59:38;;;;;;;15.80;4.22;;;;;;;23.24;50.01;98312.22;5012600;28;20037;-73
2022/05/29 03:02:19;;;;;;;13.27;4.30;;;;;;;23.28;49.79;98308.94;4997406;28;20105;-73
2022/05/29 03:04:56;;;;;;;10.00;4.07;;;;;;;23.26;49.92;98311.00;5013660;28;20120;-73
2022/05/29 03:07:25;;;;;;;20.67;4.70;;;;;;;23.29;49.98;98321.25;5012378;28;20495;-73
2022/05/29 03:09:59;;;;;;;9.93;3.88;;;;;;;23.30;49.80;98330.84;5012154;28;20037;-73
2022/05/29 03:12:36;;;;;;;12.82;3.92;;;;;;;23.31;49.82;98337.00;5013564;28;20029;-73
2022/05/29 03:15:29;;;;;;;14.13;4.00;;;;;;;23.32;49.86;98327.16;4997047;28;20168;-73
2022/05/29 03:17:54;;;;;;;14.95;4.32;;;;;;;23.35;49.62;98321.44;5013328;28;20508;-73
2022/05/29 03:20:33;;;;;;;15.02;4.10;;;;;;;23.34;49.53;98317.13;5013157;28;20065;-73
2022/05/29 03:23:17;;;;;;;11.10;3.83;;;;;;;23.34;49.71;98317.13;5012383;28;20032;-73
2022/05/29 03:25:48;;;;;;;14.00;4.13;;;;;;;23.35;49.31;98308.13;4981912;28;20061;-74
2022/05/29 03:28:24;;;;;;;8.38;3.78;;;;;;;23.37;49.02;98300.72;4995779;28;20088;-73
2022/05/29 03:30:49;;;;;;;11.88;3.70;;;;;;;23.44;48.65;98281.03;4997012;28;20030;-74
2022/05/29 03:33:15;;;;;;;10.18;3.25;;;;;;;23.49;48.42;98264.41;4995667;28;20076;-73
2022/05/29 03:36:02;;;;;;;8.90;3.03;;;;;;;23.52;48.16;98240.00;5011817;28;20046;-74
2022/05/29 03:38:27;;;;;;;10.38;3.40;;;;;;;23.52;47.90;98233.88;4995766;28;20038;-73
2022/05/29 03:40:52;;;;;;;10.60;3.63;;;;;;;23.55;47.97;98241.44;5012949;28;20034;-74
2022/05/29 03:43:18;;;;;;;8.25;3.03;;;;;;;23.57;47.78;98234.84;4995799;28;20109;-73
2022/05/29 03:45:43;;;;;;;11.45;3.17;;;;;;;23.60;47.82;98231.78;5012972;28;20033;-74
2022/05/29 03:48:09;;;;;;;10.82;3.30;;;;;;;23.67;47.53;98242.38;5011557;28;20032;-73
2022/05/29 03:50:34;;;;;;;11.25;3.28;;;;;;;23.77;47.39;98257.94;5011650;28;20473;-72
2022/05/29 03:53:01;;;;;;;11.27;3.80;;;;;;;23.84;47.24;98274.72;4979094;28;20032;-73
2022/05/29 03:55:27;;;;;;;9.35;3.00;;;;;;;23.89;47.45;98280.22;4995084;28;20041;-73
2022/05/29 03:57:52;;;;;;;8.88;3.10;;;;;;;24.31;46.30;98287.75;5012785;28;20079;-73
2022/05/29 04:00:18;;;;;;;7.75;3.00;;;;;;;24.09;46.58;98309.41;5012781;28;20104;-74
2022/05/29 04:02:45;;;;;;;13.48;3.28;;;;;;;24.03;46.89;98337.75;4995607;28;20048;-73
2022/05/29 04:05:14;;;;;;;12.88;3.33;;;;;;;24.01;46.83;98374.47;4995703;28;20398;-73
2022/05/29 04:13:07;;;;;;;13.57;3.33;;;;;;;23.96;47.57;98373.50;5011716;28;20037;-73
2022/05/29 04:15:33;;;;;;;10.88;3.40;;;;;;;23.94;47.82;98348.88;4995502;28;20034;-73
2022/05/29 04:17:58;;;;;;;9.35;2.80;;;;;;;23.93;47.70;98344.59;5011452;28;20030;-72
2022/05/29 04:20:24;;;;;;;16.70;3.58;;;;;;;23.92;47.78;98345.63;5012207;28;20029;-72
2022/05/29 04:22:49;;;;;;;10.23;3.10;;;;;;;23.87;48.09;98327.59;5012899;28;20026;-72
2022/05/29 04:25:15;;;;;;;9.90;3.35;;;;;;;23.86;48.76;98320.63;4994986;28;20030;-72
2022/05/29 04:27:40;;;;;;;11.50;3.30;;;;;;;23.80;49.54;98327.59;5012541;28;20101;-72
2022/05/29 04:30:06;;;;;;;9.43;3.47;;;;;;;23.77;49.74;98330.69;5011254;28;20041;-72
2022/05/29 04:35:16;;;;;;;13.15;3.47;;;;;;;23.72;50.66;98271.91;5012328;28;20539;-72
2022/05/29 04:37:42;;;;;;;11.07;4.05;;;;;;;23.72;50.94;98241.75;5012218;28;20029;-72
2022/05/29 04:40:08;;;;;;;6.28;3.20;;;;;;;23.67;51.26;98229.91;5012391;28;20457;-72
2022/05/29 04:42:34;;;;;;;10.35;3.60;;;;;;;23.69;51.40;98237.69;5011115;28;20029;-72
2022/05/29 04:45:00;;;;;;;10.32;3.97;;;;;;;23.65;51.76;98228.47;5012273;28;20030;-72
2022/05/29 04:47:25;;;;;;;13.07;3.42;;;;;;;23.67;51.75;98224.56;5011039;28;20022;-73
2022/05/29 04:49:51;;;;;;;13.52;3.75;;;;;;;23.71;51.88;98208.97;5012468;28;20033;-73
2022/05/29 04:52:16;;;;;;;10.82;3.55;;;;;;;23.72;51.85;98199.94;5012446;28;20026;-73
2022/05/29 04:54:42;;;;;;;8.95;3.30;;;;;;;23.79;51.74;98195.38;5010857;28;20042;-73
2022/05/29 04:57:08;;;;;;;10.18;3.30;;;;;;;23.87;51.83;98194.34;5012469;28;20045;-73
2022/05/29 04:59:34;;;;;;;8.55;3.53;;;;;;;23.96;51.60;98197.56;4997912;28;20053;-72
2022/05/29 05:02:00;;;;;;;14.02;4.00;;;;;;;24.15;51.04;98182.44;4998667;28;20022;-73
2022/05/29 05:04:25;;;;;;;8.55;3.47;;;;;;;25.04;48.98;98174.94;5014757;28;20033;-72
2022/05/29 05:06:55;;;;;;;13.38;3.88;;;;;;;25.54;48.29;98171.25;5015595;28;20022;-72
2022/05/29 05:09:20;;;;;;;12.90;3.70;;;;;;;27.51;44.03;98164.59;4998406;28;20105;-72
2022/05/29 05:11:45;;;;;;;16.38;3.67;;;;;;;28.50;42.15;98165.91;5014504;28;20101;-73
2022/05/29 05:14:11;;;;;;;13.35;3.45;;;;;;;29.87;39.28;98166.13;5015757;28;20496;-72
2022/05/29 05:16:36;;;;;;;8.35;3.20;;;;;;;30.95;36.65;98164.91;5014414;28;20041;-72
2022/05/29 05:19:02;;;;;;;13.30;3.63;;;;;;;31.63;35.20;98158.66;5015916;28;20042;-73
2022/05/29 05:21:27;;;;;;;8.88;3.08;;;;;;;32.37;34.13;98169.97;5014313;28;20042;-72
2022/05/29 05:23:53;;;;;;;14.02;3.25;;;;;;;33.28;31.79;98177.22;5015585;28;20045;-72
2022/05/29 05:26:19;;;;;;;12.95;3.17;;;;;;;33.99;29.48;98189.44;5014253;28;20477;-72
2022/05/29 05:28:44;;;;;;;11.30;2.88;;;;;;;34.92;28.61;98185.84;5015340;28;20029;-73
2022/05/29 05:31:10;;;;;;;9.90;3.13;;;;;;;35.37;27.59;98199.09;4998141;28;20426;-73
2022/05/29 05:33:35;;;;;;;8.90;2.88;;;;;;;35.88;27.25;98205.69;5014111;28;20561;-73
2022/05/29 05:36:01;;;;;;;10.95;3.20;;;;;;;36.40;25.87;98209.97;5015349;28;20050;-73
2022/05/29 05:38:26;;;;;;;9.90;4.38;;;;;;;36.67;25.45;98216.50;5014193;28;20100;-73
2022/05/29 05:40:52;;;;;;;16.45;4.45;;;;;;;36.92;24.82;98228.03;5015111;28;20461;-73
2022/05/29 05:43:19;;;;;;;15.60;6.20;;;;;;;37.09;24.87;98230.13;5013705;28;20033;-73
2022/05/29 05:45:44;;;;;;;10.90;4.28;;;;;;;37.36;24.64;98228.50;5014080;28;20440;-73
2022/05/29 05:48:10;;;;;;;11.20;4.20;;;;;;;37.59;24.54;98227.44;5014979;28;20026;-73
2022/05/29 05:50:37;;;;;;;13.40;4.43;;;;;;;37.93;23.87;98226.09;5015255;28;20072;-73
2022/05/29 05:53:03;;;;;;;10.85;4.05;;;;;;;38.30;24.03;98224.13;5014873;28;20026;-73
2022/05/29 05:55:28;;;;;;;9.80;3.97;;;;;;;38.42;23.03;98223.53;5014422;28;20060;-72
2022/05/29 05:57:54;;;;;;;15.00;3.88;;;;;;;38.27;23.91;98224.75;5014946;28;20033;-75
2022/05/29 06:00:19;;;;;;;8.18;3.60;;;;;;;37.50;24.56;98223.84;5013816;28;20046;-76
2022/05/29 06:02:45;;;;;;;11.45;3.50;;;;;;;36.46;26.09;98210.66;5013512;28;20041;-76
2022/05/29 06:05:11;;;;;;;10.63;3.30;;;;;;;36.61;25.77;98208.75;5013994;28;20046;-74
2022/05/29 06:07:37;;;;;;;9.97;3.13;;;;;;;36.61;25.72;98209.59;5011779;28;20281;-76
2022/05/29 06:10:03;;;;;;;11.35;3.42;;;;;;;37.07;25.20;98216.06;5014264;28;20496;-75
2022/05/29 06:12:28;;;;;;;11.73;3.30;;;;;;;36.79;25.66;98218.78;5014341;28;20034;-77
2022/05/29 06:14:54;;;;;;;13.30;3.30;;;;;;;36.16;26.41;98212.00;5012849;28;20026;-76
2022/05/29 06:17:20;;;;;;;11.63;3.28;;;;;;;35.54;27.20;98215.66;4977063;28;20038;-75
2022/05/29 06:19:46;;;;;;;6.00;2.90;;;;;;;34.95;28.31;98225.94;4994759;28;20398;-78
2022/05/29 06:22:11;;;;;;;17.70;3.42;;;;;;;34.42;29.38;98230.22;4993677;28;20125;-77
2022/05/29 06:24:37;;;;;;;18.70;3.35;;;;;;;33.82;30.14;98232.34;4993427;28;20034;-89
2022/05/29 06:27:03;;;;;;;27.77;4.13;;;;;;;33.23;31.43;98240.25;4993736;28;20387;-79
2022/05/29 06:29:28;;;;;;;13.48;3.47;;;;;;;32.76;32.19;98244.16;5003851;28;20053;-80
2022/05/29 06:31:59;;;;;;;19.23;3.85;;;;;;;32.44;32.82;98245.28;5012265;28;20040;-82
2022/05/29 06:34:25;;;;;;;24.10;3.60;;;;;;;32.29;33.07;98251.50;5012373;28;20034;-78
2022/05/29 06:36:50;;;;;;;20.60;3.80;;;;;;;32.05;33.51;98245.81;5012200;28;20049;-77
2022/05/29 06:39:16;;;;;;;11.60;3.65;;;;;;;31.87;33.88;98244.47;5012172;28;20555;-77
2022/05/29 06:41:41;;;;;;;9.02;3.33;;;;;;;31.62;34.56;98254.13;5012934;28;20038;-77
2022/05/29 06:44:07;;;;;;;17.60;3.78;;;;;;;31.59;34.48;98253.84;5006649;28;20061;-77
2022/05/29 06:46:33;;;;;;;16.13;3.28;;;;;;;31.83;34.26;98262.25;5012088;28;20061;-78
2022/05/29 06:48:58;;;;;;;10.45;3.10;;;;;;;33.22;31.75;98260.25;5013226;28;20030;-77
2022/05/29 06:51:24;;;;;;;12.77;3.45;;;;;;;33.78;30.67;98271.88;4995170;28;20432;-75
2022/05/29 06:53:54;;;;;;;11.25;3.22;;;;;;;33.73;30.79;98272.72;5013054;28;20030;-82
2022/05/29 06:56:19;;;;;;;16.95;3.38;;;;;;;33.47;31.37;98291.00;4995584;28;20042;-82
2022/05/29 06:58:45;;;;;;;11.20;3.33;;;;;;;33.17;31.39;98292.69;4979051;28;20472;-79
2022/05/29 07:07:00;;;;;;;9.88;3.35;;;;;;;32.96;31.98;98291.97;5011835;28;20052;-80
2022/05/29 07:09:36;;;;;;;10.73;3.22;;;;;;;32.77;32.16;98297.16;5012918;28;20034;-83
2022/05/29 07:12:07;;;;;;;8.93;3.10;;;;;;;32.76;32.26;98292.81;4995714;28;20117;-83
2022/05/29 07:14:35;;;;;;;10.43;3.70;;;;;;;33.32;31.56;98291.84;4971447;28;20030;-78
2022/05/29 07:17:01;;;;;;;9.07;2.97;;;;;;;34.33;29.56;98283.44;4975584;28;20049;-86
2022/05/29 07:19:28;;;;;;;8.98;3.33;;;;;;;34.85;29.09;98272.91;5004811;28;20477;-84
2022/05/29 07:21:55;;;;;;;9.20;3.10;;;;;;;35.32;28.20;98270.50;5010317;28;20489;-81
2022/05/29 07:24:21;;;;;;;9.75;3.38;;;;;;;35.67;27.54;98276.53;4995324;28;20436;-81
2022/05/29 07:26:46;;;;;;;9.50;3.00;;;;;;;35.80;27.48;98266.88;5011202;28;20026;-89
2022/05/29 07:29:15;;;;;;;10.93;3.15;;;;;;;35.95;26.93;98266.66;5012444;28;20037;-81
2022/05/29 07:31:40;;;;;;;10.73;3.30;;;;;;;36.22;26.90;98260.50;5012239;28;20108;-78
2022/05/29 07:34:05;;;;;;;19.50;3.83;;;;;;;36.39;26.96;98256.47;5011313;28;20117;-77
2022/05/29 07:36:31;;;;;;;14.88;3.67;;;;;;;36.59;27.02;98233.53;5013611;28;20552;-78
2022/05/29 07:38:57;;;;;;;17.27;3.25;;;;;;;36.77;26.84;98242.75;4978459;28;20120;-74
2022/05/29 07:44:07;;;;;;;11.52;3.35;;;;;;;37.38;25.50;98240.69;5012071;28;20412;-76
2022/05/29 07:46:32;;;;;;;13.30;3.30;;;;;;;37.55;25.08;98226.44;4994186;28;20140;-75
2022/05/29 07:48:58;;;;;;;17.75;3.67;;;;;;;37.69;24.86;98226.41;5011695;28;20484;-77
2022/05/29 07:51:24;;;;;;;12.45;3.45;;;;;;;37.68;24.50;98223.97;4993007;28;20042;-76
2022/05/29 07:53:49;;;;;;;12.55;3.33;;;;;;;37.58;24.49;98231.25;5010680;28;20030;-81
2022/05/29 07:56:16;;;;;;;11.15;3.00;;;;;;;37.65;24.60;98214.50;5010635;28;20030;-80
2022/05/29 07:58:43;;;;;;;8.63;2.85;;;;;;;37.71;24.55;98234.28;5010194;28;20049;-75
2022/05/29 08:01:08;;;;;;;12.13;3.47;;;;;;;37.36;24.65;98240.19;5011824;28;20030;-77
2022/05/29 08:03:34;;;;;;;11.68;2.95;;;;;;;36.85;25.08;98238.53;5010252;28;20087;-77
2022/05/29 08:05:59;;;;;;;9.95;3.20;;;;;;;36.26;25.27;98232.78;5010367;28;20030;-79
2022/05/29 08:08:26;;;;;;;11.00;3.00;;;;;;;35.68;25.59;98235.53;5010416;28;20025;-77
2022/05/29 08:10:51;;;;;;;14.25;3.30;;;;;;;35.57;26.32;98223.22;5010462;28;20079;-74
2022/05/29 08:13:17;;;;;;;15.35;3.00;;;;;;;35.69;26.31;98229.03;5009868;28;20479;-81
2022/05/29 08:15:42;;;;;;;12.18;3.05;;;;;;;35.57;25.67;98238.72;5010200;28;20041;-76
2022/05/29 08:18:09;;;;;;;14.70;3.15;;;;;;;35.37;25.27;98243.31;5009648;28;20034;-75
2022/05/29 08:20:36;;;;;;;8.88;2.95;;;;;;;35.23;24.44;98253.22;4974799;28;20038;-75
2022/05/29 08:23:03;;;;;;;9.07;2.53;;;;;;;35.15;24.81;98246.53;4989747;28;20474;-77
2022/05/29 08:30:57;;;;;;;9.00;2.50;;;;;;;34.89;25.58;98229.78;5012214;28;20041;-76
2022/05/29 08:33:30;;;;;;;12.05;2.47;;;;;;;34.22;26.58;98208.72;5012234;28;20405;-75
2022/05/29 08:36:05;;;;;;;12.02;2.70;;;;;;;33.89;26.86;98197.66;5014204;28;20148;-75
2022/05/29 08:38:30;;;;;;;13.18;2.90;;;;;;;34.13;27.14;98194.19;5011171;28;20118;-80
2022/05/29 08:40:57;;;;;;;18.25;2.97;;;;;;;34.31;26.97;98195.41;5013668;28;20025;-83
2022/05/29 08:43:36;;;;;;;9.45;2.80;;;;;;;34.48;27.17;98195.78;4998281;28;20064;-72
2022/05/29 08:46:26;;;;;;;9.20;2.80;;;;;;;34.51;26.98;98181.66;5015755;28;20038;-72
2022/05/29 08:48:51;;;;;;;9.05;2.67;;;;;;;34.24;27.11;98193.06;5000207;28;20472;-73
2022/05/29 08:51:32;;;;;;;14.00;3.25;;;;;;;34.34;27.25;98192.13;5013931;28;20026;-73
2022/05/29 08:54:15;;;;;;;12.13;2.80;;;;;;;34.37;27.50;98186.16;5013887;28;20034;-72
2022/05/29 08:57:01;;;;;;;8.48;2.10;;;;;;;34.41;27.71;98187.19;5013864;28;20620;-72
2022/05/29 08:59:39;;;;;;;12.57;2.65;;;;;;;34.41;27.65;98176.34;5014692;28;20030;-75
2022/05/29 09:02:04;;;;;;;;;;;;;;;34.39;28.20;98195.59;5015496;28;20029;-71
2022/05/29 09:04:36;;;;;;;16.43;2.90;;;;;;;34.38;27.91;98188.56;5015461;28;20400;-72
2022/05/29 09:07:04;;;;;;;14.05;2.88;;;;;;;34.30;28.43;98188.38;4996510;28;20799;-73
2022/05/29 09:10:15;;;;;;;15.60;3.30;;;;;;;34.18;28.03;98202.28;5015043;28;20413;-72
2022/05/29 09:12:44;;;;;;;7.90;2.67;;;;;;;34.13;27.87;98184.19;5020119;28;20570;-75
2022/05/29 09:15:16;;;;;;;8.00;2.60;;;;;;;34.10;27.41;98189.38;5020940;28;20045;-74
2022/05/29 09:17:50;;;;;;;10.27;2.70;;;;;;;34.11;27.66;98188.25;4991206;28;20136;-76
2022/05/29 09:20:22;;;;;;;8.32;2.50;;;;;;;33.94;27.91;98173.25;5015958;28;20036;-76
2022/05/29 09:22:48;;;;;;;7.80;2.63;;;;;;;33.92;28.04;98183.53;5015833;28;20433;-75
2022/05/29 09:25:36;;;;;;;11.48;3.20;;;;;;;33.94;27.91;98175.13;5002301;28;20056;-75
2022/05/29 09:28:03;;;;;;;10.73;2.85;;;;;;;33.91;27.75;98173.81;5007873;28;20040;-73
2022/05/29 09:30:29;;;;;;;10.48;2.85;;;;;;;33.72;27.97;98165.59;5002286;28;20048;-75
2022/05/29 09:33:00;;;;;;;6.38;2.45;;;;;;;33.63;28.14;98162.63;4999160;28;20404;-74
2022/05/29 09:35:31;;;;;;;8.07;2.17;;;;;;;33.66;28.07;98158.56;5014601;28;20061;-73
2022/05/29 09:38:07;;;;;;;10.35;2.65;;;;;;;33.65;27.40;98157.75;5021251;28;20033;-75
2022/05/29 09:40:54;;;;;;;12.97;2.70;;;;;;;33.57;27.63;98152.13;5032846;28;20051;-75
2022/05/29 09:43:23;;;;;;;11.63;3.03;;;;;;;33.62;27.39;98143.97;5036471;28;20279;-75
2022/05/29 09:45:49;;;;;;;9.10;2.45;;;;;;;33.69;27.97;98142.56;5002024;28;20025;-75
2022/05/29 09:51:28;;;;;;;8.40;2.42;;;;;;;33.58;28.90;98124.78;5014362;28;20087;-79
2022/05/29 09:53:58;;;;;;;16.05;2.80;;;;;;;33.41;30.59;98127.09;5015660;28;20026;-78
2022/05/29 09:56:28;;;;;;;13.18;3.00;;;;;;;33.27;30.45;98124.19;5012699;28;20026;-75
2022/05/29 09:59:17;;;;;;;15.70;2.88;;;;;;;33.05;30.05;98111.88;5012888;28;20493;-76
2022/05/29 10:01:46;;;;;;;11.65;2.80;;;;;;;33.01;30.41;98118.94;4996437;28;20034;-78
2022/05/29 10:04:35;;;;;;;10.25;2.53;;;;;;;32.86;30.41;98103.59;5011775;28;20116;-77
2022/05/29 10:07:09;;;;;;;7.75;2.60;;;;;;;32.93;30.07;98100.59;5031014;28;20460;-77
2022/05/29 10:09:35;;;;;;;17.02;2.88;;;;;;;32.97;30.17;98094.38;5016288;28;20071;-76
2022/05/29 10:12:15;;;;;;;10.70;2.70;;;;;;;33.03;30.15;98091.63;5028498;28;20037;-76
2022/05/29 10:14:42;;;;;;;8.32;2.72;;;;;;;33.08;30.34;98099.69;5015063;28;20037;-76
2022/05/29 10:17:13;;;;;;;11.17;3.47;;;;;;;33.08;29.51;98099.69;5014799;28;20029;-76
2022/05/29 10:19:41;;;;;;;12.55;2.90;;;;;;;33.07;30.03;98081.88;5015066;28;20030;-74
2022/05/29 10:22:25;;;;;;;9.73;2.60;;;;;;;33.11;29.58;98081.00;5031444;28;20039;-75
2022/05/29 10:24:50;;;;;;;8.65;2.95;;;;;;;33.15;29.80;98073.16;5031289;28;20029;-77
2022/05/29 10:27:33;;;;;;;8.10;2.50;;;;;;;33.24;29.21;98093.13;5014448;28;20637;-76
2022/05/29 10:30:03;;;;;;;12.32;2.97;;;;;;;33.23;28.77;98075.28;5014125;28;20140;-76
2022/05/29 10:32:30;;;;;;;15.10;3.15;;;;;;;33.23;29.10;98072.59;4993847;28;20075;-76
2022/05/29 10:35:27;;;;;;;8.95;2.53;;;;;;;33.18;28.67;98070.72;4994834;28;20041;-77
2022/05/29 10:37:53;;;;;;;17.17;2.83;;;;;;;33.10;29.14;98075.88;5029800;28;20033;-76
2022/05/29 10:40:31;;;;;;;9.60;2.53;;;;;;;32.90;29.35;98063.31;5029288;28;20030;-79
2022/05/29 10:43:01;;;;;;;13.13;2.83;;;;;;;32.80;29.47;98056.88;4993255;28;20038;-77
2022/05/29 10:45:32;;;;;;;8.18;2.60;;;;;;;32.72;29.47;98065.59;4972151;28;20422;-75
2022/05/29 10:48:03;;;;;;;9.65;2.70;;;;;;;32.53;29.95;98075.34;4994694;28;20045;-77
2022/05/29 10:51:05;;;;;;;12.05;2.60;;;;;;;32.36;30.31;98065.72;5011730;28;20037;-76
2022/05/29 10:53:42;;;;;;;14.75;2.70;;;;;;;32.14;30.70;98049.06;5012695;28;20093;-76
2022/05/29 10:56:20;;;;;;;8.20;2.70;;;;;;;32.08;30.91;98046.34;4994759;28;20103;-77
2022/05/29 10:59:14;;;;;;;10.02;2.72;;;;;;;31.93;30.94;98039.09;4995169;28;20521;-76
2022/05/29 11:04:46;;;;;;;9.73;2.38;;;;;;;31.80;31.17;98026.16;5012618;28;20080;-76
2022/05/29 11:07:32;;;;;;;9.63;2.22;;;;;;;31.81;31.25;98008.88;4975927;28;20050;-76
2022/05/29 11:09:58;;;;;;;10.90;2.90;;;;;;;31.67;31.52;97997.84;4992524;28;20026;-76
2022/05/29 11:13:01;;;;;;;7.60;2.70;;;;;;;31.66;31.85;97988.16;4992382;28;20100;-76
2022/05/29 11:15:48;;;;;;;9.02;2.50;;;;;;;31.71;32.21;97995.44;4977925;28;20034;-76
2022/05/29 11:18:48;;;;;;;9.38;2.63;;;;;;;31.80;31.83;97985.69;5004902;28;20026;-77
2022/05/29 11:21:39;;;;;;;16.63;2.97;;;;;;;31.86;31.91;97983.78;5006343;28;20048;-76
2022/05/29 11:24:30;;;;;;;16.60;2.85;;;;;;;31.72;31.54;97999.72;5009375;28;20025;-77
2022/05/29 11:27:03;;;;;;;12.05;2.90;;;;;;;31.62;31.57;97981.69;4991221;28;20484;-77
2022/05/29 11:30:09;;;;;;;19.80;3.20;;;;;;;31.59;31.69;97971.44;4999180;28;20079;-77
2022/05/29 11:32:44;;;;;;;12.10;2.90;;;;;;;31.73;31.58;97967.06;4990842;28;20095;-76
2022/05/29 11:35:28;;;;;;;6.55;2.80;;;;;;;31.80;31.37;97955.19;5002701;28;20049;-77
2022/05/29 11:38:22;;;;;;;8.20;2.97;;;;;;;31.92;31.44;97948.41;5010936;28;20107;-77
2022/05/29 11:40:53;;;;;;;6.72;2.70;;;;;;;32.05;31.39;97941.59;5010537;28;20029;-77
2022/05/29 11:43:25;;;;;;;13.40;2.95;;;;;;;32.04;31.69;97937.31;4994572;28;20021;-77
2022/05/29 11:52:17;;;;;;;9.65;3.20;;;;;;;32.10;31.55;97930.00;4989519;28;20038;-74
2022/05/29 11:55:09;;;;;;;12.10;3.08;;;;;;;32.13;32.10;97945.63;4973604;28;20038;-75
2022/05/29 11:57:38;;;;;;;14.00;3.15;;;;;;;32.00;32.55;97927.34;4973553;28;20576;-77
2022/05/29 12:00:29;;;;;;;7.60;2.60;;;;;;;31.87;33.19;97934.94;4989533;28;20441;-79
2022/05/29 12:03:31;;;;;;;11.68;3.08;;;;;;;31.79;33.12;97932.81;4892091;29;20035;-78
2022/05/29 12:06:18;;;;;;;8.48;3.17;;;;;;;31.84;33.71;97945.47;4901929;29;20040;-77
2022/05/29 12:08:57;;;;;;;13.13;3.25;;;;;;;31.84;33.63;97932.78;4912325;29;20108;-76
2022/05/29 12:11:50;;;;;;;10.93;3.08;;;;;;;31.81;33.88;97932.53;4912456;29;20051;-76
2022/05/29 12:14:32;;;;;;;9.20;3.20;;;;;;;31.69;34.39;97949.84;4912762;29;20559;-76
2022/05/29 12:16:59;;;;;;;9.32;3.15;;;;;;;31.61;34.20;97925.31;4911265;29;20064;-77
2022/05/29 12:19:31;;;;;;;8.02;3.22;;;;;;;31.51;35.12;97935.00;4904258;29;20040;-76
2022/05/29 12:22:04;;;;;;;15.57;3.88;;;;;;;31.43;35.03;97943.66;4877968;29;20056;-80